CheckWX is a tool to help pilots better visualize weather data.  It is not intended as a substitute for an official pre-flight weather briefing.

13:05:13 UTC

CYMM TAF
Fort McMurray Airport
Fort McMurray, Canada
TAF CYMM 241242Z 2413/2501 36006KT P6SM SCT060 FM241600 36008KT P6SM SCT020 TEMPO 2416/2419 BKN020 FM241900 01012KT P6SM SCT050 RMK FCST BASED ON AUTO OBS. NXT FCST BY 241900Z

May-24@
13:00 UTC

May-24 @ 13:00 UTC

May-24@
16:00 UTC

May-24 @ 16:00 UTC

TAF CYMM 241242Z 2413/2501 36006KT P6SM SCT060
Wind
  • 360° at 6 KTS
Cloud Levels
  • Scattered at 6,000' AGL

May-24@
16:00 UTC

May-24 @ 16:00 UTC

May-24@
19:00 UTC

May-24 @ 19:00 UTC

TEMPO 2416/2419 BKN020

Temporary

Temporary Changes expected for less than half the time period

Cloud Levels
  • Broken at 2,000' AGL

May-24@
16:00 UTC

May-24 @ 16:00 UTC

May-24@
19:00 UTC

May-24 @ 19:00 UTC

FM241600 36008KT P6SM SCT020

From

From Standard forecast or significant change

Wind
  • 360° at 8 KTS
Cloud Levels
  • Scattered at 2,000' AGL

May-24@
19:00 UTC

May-24 @ 19:00 UTC

May-25@
01:00 UTC

May-25 @ 01:00 UTC

FM241900 01012KT P6SM SCT050 RMK FCST BASED ON AUTO OBS. NXT FCST BY 241900Z

From

From Standard forecast or significant change

Wind
  • 010° at 12 KTS
Cloud Levels
  • Scattered at 5,000' AGL